Forseti — V2PV4 — position and weather

sailwx.info

Track history (hours):
 
Tides and Currents Weather Stations Pressure Air Temp Water Temp Dewpoint Dewpoint Depression Visibility Wind Speed Wind Dir Waves Ship Positions

Forseti

Last reported at 2015-Jan-31 14:32 UTC. Time now 2015-Jan-31 14:41 UTC.
Position N 54°12' E 009°33'.

Length 85 m; draft 5.4 m.

Type: Cargo ship. MMSI: 304010297.

Date/timePositionNaut miles runAvg speedWind from/ knotsBaromVisibWave heightAir tempDewpointWater temp
2015-Jan-31 14:32N 54°12' E 009°33'5 5.1
2015-Jan-31 13:33N 54°16' E 009°38'7 7.1
2015-Jan-31 12:33N 54°21' E 009°46'8 7.8
2015-Jan-31 11:33N 54°21' E 009°60'5 4.5
2015-Jan-31 10:33N 54°22' E 010°07'2 2.1
2015-Jan-31 09:33N 54°23' E 010°11'9 8.6
2015-Jan-31 08:33N 54°30' E 010°18'10 9.6
2015-Jan-31 07:33N 54°34' E 010°33'19 9.6
2015-Jan-31 05:33N 54°36' E 011°06'10 9.6
2015-Jan-31 04:33N 54°33' E 011°22'10 9.6
2015-Jan-31 03:33N 54°29' E 011°37'9 9.3
2015-Jan-31 02:33N 54°27' E 011°52'9 8.6
2015-Jan-31 01:33N 54°27' E 012°07'10 9.6
2015-Jan-31 00:30N 54°36' E 012°15'9 9.9
2015-Jan-30 23:33N 54°42' E 012°28'11 9.9
2015-Jan-30 22:28N 54°48' E 012°44'13 9.8
2015-Jan-30 21:09N 54°52' E 013°05'15 9.4
2015-Jan-30 19:33N 54°54' E 013°31'9 9.4
2015-Jan-30 18:34N 54°54' E 013°47'19 9.4
2015-Jan-30 16:33N 54°55' E 014°20'10 9.6
2015-Jan-30 15:33N 54°56' E 014°37'10 9.6
2015-Jan-30 14:33N 54°57' E 014°53'9 9.0
2015-Jan-30 13:33N 54°57' E 015°09'9 8.5
2015-Jan-30 12:32N 54°60' E 015°23'8 8.3
2015-Jan-30 11:33N 55°03' E 015°36'  
2015-Jan-24 17:12N 55°37' E 015°22'9 9.1
2015-Jan-24 16:13N 55°32' E 015°09'6 9.4
2015-Jan-24 15:33N 55°29' E 014°59'9 9.1
2015-Jan-24 14:31N 55°24' E 014°45'9 9.0
2015-Jan-24 13:33N 55°18' E 014°34'10 9.6
2015-Jan-24 12:33N 55°11' E 014°23'9 9.5
2015-Jan-24 11:33N 55°04' E 014°12'10 9.0
2015-Jan-24 10:28N 54°58' E 013°59'8 9.1
2015-Jan-24 09:33N 54°55' E 013°45'9 9.3
2015-Jan-24 08:33N 54°51' E 013°30'9 9.0
2015-Jan-24 07:33N 54°48' E 013°16'9 9.4
2015-Jan-24 06:33N 54°44' E 013°01'9 9.1
2015-Jan-24 05:33N 54°41' E 012°46'9 9.2
2015-Jan-24 04:33N 54°36' E 012°32'9 9.3
2015-Jan-24 03:33N 54°31' E 012°18'9 8.5
2015-Jan-24 02:33N 54°25' E 012°10'10 9.7
2015-Jan-24 01:33N 54°25' E 011°53'10 9.9
2015-Jan-24 00:33N 54°27' E 011°36'10 9.5
2015-Jan-23 23:33N 54°31' E 011°22'10 9.1
2015-Jan-23 22:30N 54°35' E 011°06'9 8.8
2015-Jan-23 21:31N 54°38' E 010°52'18 8.8
2015-Jan-23 19:32N 54°47' E 010°26'  
Track history (hours):
 
Tides and Currents Weather Stations Pressure Air Temp Water Temp Dewpoint Dewpoint Depression Visibility Wind Speed Wind Dir Waves Ship Positions

Forseti

Last reported at 2015-Jan-31 14:32 UTC. Time now 2015-Jan-31 14:41 UTC.
Position N 54°12' E 009°33'.

Length 85 m; draft 5.4 m.

Type: Cargo ship. MMSI: 304010297.

Date/timePositionNaut miles runAvg speedWind from/ knotsBaromVisibWave heightAir tempDewpointWater temp
2015-Jan-31 14:32N 54°12' E 009°33'5 5.1
2015-Jan-31 13:33N 54°16' E 009°38'7 7.1
2015-Jan-31 12:33N 54°21' E 009°46'8 7.8
2015-Jan-31 11:33N 54°21' E 009°60'5 4.5
2015-Jan-31 10:33N 54°22' E 010°07'2 2.1
2015-Jan-31 09:33N 54°23' E 010°11'9 8.6
2015-Jan-31 08:33N 54°30' E 010°18'10 9.6
2015-Jan-31 07:33N 54°34' E 010°33'19 9.6
2015-Jan-31 05:33N 54°36' E 011°06'10 9.6
2015-Jan-31 04:33N 54°33' E 011°22'10 9.6
2015-Jan-31 03:33N 54°29' E 011°37'9 9.3
2015-Jan-31 02:33N 54°27' E 011°52'9 8.6
2015-Jan-31 01:33N 54°27' E 012°07'10 9.6
2015-Jan-31 00:30N 54°36' E 012°15'9 9.9
2015-Jan-30 23:33N 54°42' E 012°28'11 9.9
2015-Jan-30 22:28N 54°48' E 012°44'13 9.8
2015-Jan-30 21:09N 54°52' E 013°05'15 9.4
2015-Jan-30 19:33N 54°54' E 013°31'9 9.4
2015-Jan-30 18:34N 54°54' E 013°47'19 9.4
2015-Jan-30 16:33N 54°55' E 014°20'10 9.6
2015-Jan-30 15:33N 54°56' E 014°37'10 9.6
2015-Jan-30 14:33N 54°57' E 014°53'9 9.0
2015-Jan-30 13:33N 54°57' E 015°09'9 8.5
2015-Jan-30 12:32N 54°60' E 015°23'8 8.3
2015-Jan-30 11:33N 55°03' E 015°36'  
2015-Jan-24 17:12N 55°37' E 015°22'9 9.1
2015-Jan-24 16:13N 55°32' E 015°09'6 9.4
2015-Jan-24 15:33N 55°29' E 014°59'9 9.1
2015-Jan-24 14:31N 55°24' E 014°45'9 9.0
2015-Jan-24 13:33N 55°18' E 014°34'10 9.6
2015-Jan-24 12:33N 55°11' E 014°23'9 9.5
2015-Jan-24 11:33N 55°04' E 014°12'10 9.0
2015-Jan-24 10:28N 54°58' E 013°59'8 9.1
2015-Jan-24 09:33N 54°55' E 013°45'9 9.3
2015-Jan-24 08:33N 54°51' E 013°30'9 9.0
2015-Jan-24 07:33N 54°48' E 013°16'9 9.4
2015-Jan-24 06:33N 54°44' E 013°01'9 9.1
2015-Jan-24 05:33N 54°41' E 012°46'9 9.2
2015-Jan-24 04:33N 54°36' E 012°32'9 9.3
2015-Jan-24 03:33N 54°31' E 012°18'9 8.5
2015-Jan-24 02:33N 54°25' E 012°10'10 9.7
2015-Jan-24 01:33N 54°25' E 011°53'10 9.9
2015-Jan-24 00:33N 54°27' E 011°36'10 9.5
2015-Jan-23 23:33N 54°31' E 011°22'10 9.1
2015-Jan-23 22:30N 54°35' E 011°06'9 8.8
2015-Jan-23 21:31N 54°38' E 010°52'18 8.8
2015-Jan-23 19:32N 54°47' E 010°26'  

Dump ship's entire track history